• Join FlightAware (Why Join?)
  • Login
  • US Flag 
12:12AM EDT


 

Airport Tracker/Info


-or-


 

Live Flight TrackerFlight Track Log ✈ N414NW ✈ 03-Jan-2014 ✈ KNEW - KDCU

Flight Track Log - Related Links

Times and Time Zones

All times are in EST time to prevent confusion due to time zone crossing. See the N414NW flight status page for this flight to view local times or setup timezone preferences in your user account.

Time Position Orientation Groundspeed Altitude Reporting Facility
EST Latitude Longitude Course Direction KTS MPH feet Rate Location/Type
10:49AM 30.0528 -90.0322 North 86 99 600  Level Houston Center
10:50AM 30.0881 -90.0283 North 107 123 2,300 1,020 Climbing Houston Center
10:51AM 30.1094 -90.0164 26° Northeast 115 132 2,800 840 Climbing Houston Center
10:51AM 30.1231 -90.0075 29° Northeast 113 130 3,400 840 Climbing Houston Center
10:52AM 30.1361 -90.0008 24° Northeast 111 128 3,700 780 Climbing Houston Center
10:52AM 30.1517 -89.9919 26° Northeast 111 128 4,200 840 Climbing Houston Center
10:53AM 30.1628 -89.9833 34° Northeast 111 128 4,600 840 Climbing Houston Center
10:53AM 30.1783 -89.9739 28° Northeast 109 125 5,100 1,020 Climbing Houston Center
10:54AM 30.1936 -89.9633 31° Northeast 108 124 5,700 960 Climbing Houston Center
10:54AM 30.1947 -89.9636 348° North 106 122 5,800 720 Climbing Houston Center
10:55AM 30.2200 -89.9469 30° Northeast 107 123 6,500 780 Climbing Houston Center
10:55AM 30.2253 -89.9431 32° Northeast 105 121 6,700 540 Climbing Houston Center
10:56AM 30.2489 -89.9294 26° Northeast 114 131 7,100 660 Climbing Houston Center
10:56AM 30.2519 -89.9275 29° Northeast 121 139 7,300 660 Climbing Houston Center
10:57AM 30.2814 -89.9083 29° Northeast 127 146 7,800 540 Climbing Houston Center
10:57AM 30.2847 -89.9067 23° Northeast 134 154 7,900 660 Climbing Houston Center
10:58AM 30.3194 -89.8836 30° Northeast 141 162 8,500 480 Climbing Houston Center
10:59AM 30.3528 -89.8639 27° Northeast 146 168 8,900 480 Climbing Houston Center
11:00AM 30.3908 -89.8403 28° Northeast 151 174 9,500 540 Climbing Houston Center
11:01AM 30.4297 -89.8164 28° Northeast 155 178 10,100 600 Climbing Houston Center
11:02AM 30.4761 -89.7867 29° Northeast 157 181 10,800 420 Climbing Houston Center
11:03AM 30.5161 -89.7608 29° Northeast 161 185 11,000 60 Climbing Houston Center
11:04AM 30.5614 -89.7328 28° Northeast 176 203 11,000  Level Houston Center
11:05AM 30.6092 -89.7111 21° North 182 209 11,000  Level Houston Center
11:06AM 30.6553 -89.6900 21° North 180 207 11,000  Level Houston Center
11:07AM 30.7000 -89.6700 21° North 175 201 11,000  Level Houston Center
11:08AM 30.7550 -89.6450 21° North 176 203 11,000  Level Houston Center
11:09AM 30.8003 -89.6242 22° Northeast 176 203 11,000  Level Houston Center
11:10AM 30.8461 -89.6025 22° Northeast 176 203 11,000  Level Houston Center
11:11AM 30.8908 -89.5828 21° North 174 200 11,000  Level Houston Center
11:12AM 30.9361 -89.5614 22° Northeast 175 201 11,000  Level Houston Center
11:14AM 30.9814 -89.5406 22° Northeast 175 201 11,000  Level Houston Center
11:15AM 31.0364 -89.5169 20° North 175 201 11,000  Level Houston Center
11:16AM 31.0817 -89.4950 23° Northeast 175 201 11,000  Level Houston Center
11:17AM 31.1269 -89.4747 21° North 175 201 11,000  Level Houston Center
11:18AM 31.1714 -89.4531 23° Northeast 173 199 11,000  Level Houston Center
11:19AM 31.2161 -89.4333 21° North 172 198 11,000  Level Houston Center
11:20AM 31.2642 -89.4108 22° Northeast 172 198 11,000  Level Houston Center
11:21AM 31.3092 -89.3892 22° Northeast 174 200 11,000  Level Houston Center
11:22AM 31.3539 -89.3683 22° Northeast 173 199 11,000  Level Houston Center
11:23AM 31.4081 -89.3439 21° North 173 199 11,000  Level Houston Center
11:24AM 31.4506 -89.3169 28° Northeast 174 200 11,000  Level Houston Center
11:25AM 31.4933 -89.2869 31° Northeast 177 204 11,000  Level Houston Center
11:26AM 31.5347 -89.2561 32° Northeast 177 204 11,000  Level Houston Center
11:27AM 31.5781 -89.2264 30° Northeast 179 206 11,000  Level Houston Center
11:28AM 31.6292 -89.1897 31° Northeast 179 206 11,000  Level Houston Center
11:29AM 31.6719 -89.1600 31° Northeast 179 206 11,000  Level Houston Center
11:30AM 31.7136 -89.1297 32° Northeast 177 204 11,000  Level Houston Center
11:31AM 31.7561 -89.1003 31° Northeast 177 204 11,000  Level Houston Center
11:32AM 31.7978 -89.0694 32° Northeast 177 204 11,000  Level Houston Center
11:33AM 31.8406 -89.0389 31° Northeast 177 204 11,000  Level Houston Center
11:34AM 31.8919 -89.0028 31° Northeast 179 206 11,000  Level Houston Center
11:35AM 31.9347 -88.9711 32° Northeast 179 206 11,000  Level Houston Center
11:36AM 31.9819 -88.9372 31° Northeast 179 206 11,000  Level Memphis Center
11:37AM 32.0244 -88.9078 30° Northeast 178 205 11,000  Level Memphis Center
11:38AM 32.0658 -88.8778 32° Northeast 177 204 11,000  Level Memphis Center
11:39AM 32.1064 -88.8472 33° Northeast 175 201 11,000  Level Memphis Center
11:40AM 32.1486 -88.8178 31° Northeast 176 203 11,000  Level Memphis Center
11:42AM 32.1978 -88.7822 31° Northeast 175 201 11,000  Level Memphis Center
11:43AM 32.2386 -88.7528 31° Northeast 173 199 11,000  Level Memphis Center
11:44AM 32.2806 -88.7225 31° Northeast 175 201 11,000  Level Memphis Center
11:45AM 32.3214 -88.6925 32° Northeast 175 201 11,000  Level Memphis Center
11:46AM 32.3631 -88.6617 32° Northeast 176 203 11,000  Level Memphis Center
11:47AM 32.4042 -88.6325 31° Northeast 174 200 11,000  Level Memphis Center
11:48AM 32.4542 -88.5967 31° Northeast 175 201 11,000  Level Memphis Center
11:49AM 32.4956 -88.5664 32° Northeast 175 201 11,000  Level Memphis Center
11:50AM 32.5361 -88.5367 32° Northeast 174 200 11,000  Level Memphis Center
11:51AM 32.5772 -88.5058 32° Northeast 175 201 11,000  Level Memphis Center
11:52AM 32.6186 -88.4761 31° Northeast 174 200 11,000  Level Memphis Center
11:53AM 32.6675 -88.4414 31° Northeast 172 198 11,000  Level Memphis Center
11:54AM 32.7083 -88.4103 33° Northeast 174 200 11,000  Level Memphis Center
11:55AM 32.7472 -88.3811 32° Northeast 173 199 11,100  Climbing Memphis Center
11:55AM 32.7492 -88.3811 360° North 173 199 11,000  Descending Memphis Center
11:56AM 32.7889 -88.3517 32° Northeast 173 199 11,100  Climbing Memphis Center
11:56AM 32.7906 -88.3511 16° North 174 200 11,000  Descending Memphis Center
11:57AM 32.8244 -88.3267 31° Northeast 171 197 11,100  Climbing Memphis Center
11:57AM 32.8303 -88.3217 36° Northeast 171 197 11,000  Descending Memphis Center
11:58AM 32.8661 -88.2969 30° Northeast 172 198 11,100  Climbing Memphis Center
11:58AM 32.8708 -88.2914 45° Northeast 172 198 11,000  Descending Memphis Center
11:59AM 32.9058 -88.2647 33° Northeast 173 199 11,100  Climbing Memphis Center
11:59AM 32.9200 -88.2550 30° Northeast 174 200 11,000  Descending Memphis Center
12:00PM 32.9494 -88.2325 33° Northeast 174 200 11,100  Climbing Memphis Center
12:00PM 32.9614 -88.2250 28° Northeast 174 200 11,000 -120 Descending Memphis Center
12:01PM 32.9911 -88.2028 32° Northeast 174 200 11,000  Level Memphis Center
12:01PM 33.0017 -88.1942 34° Northeast 173 199 11,000  Level Memphis Center
12:02PM 33.0308 -88.1728 32° Northeast 174 200 11,000  Level Memphis Center
12:02PM 33.0478 -88.1611 30° Northeast 174 200 11,000  Level Memphis Center
12:03PM 33.0725 -88.1431 31° Northeast 174 200 11,000  Level Memphis Center
12:03PM 33.0886 -88.1308 32° Northeast 173 199 11,000 -120 Level Memphis Center
12:04PM 33.1164 -88.1106 31° Northeast 174 200 10,900 -120 Descending Memphis Center
12:04PM 33.1306 -88.1006 31° Northeast 175 201 10,900  Level Memphis Center
12:05PM 33.1581 -88.0808 31° Northeast 174 200 10,900  Level Memphis Center
12:05PM 33.1706 -88.0697 37° Northeast 173 199 10,900  Level Memphis Center
12:06PM 33.1975 -88.0508 30° Northeast 175 201 10,900  Level Memphis Center
12:06PM 33.2125 -88.0394 32° Northeast 175 201 10,900  Level Memphis Center
12:07PM 33.2392 -88.0208 30° Northeast 173 199 10,900  Level Memphis Center
12:07PM 33.2539 -88.0086 35° Northeast 175 201 10,900  Level Memphis Center
12:08PM 33.2828 -87.9883 30° Northeast 173 199 10,900  Level Memphis Center
12:09PM 33.3225 -87.9583 32° Northeast 174 200 10,900  Level Memphis Center
12:09PM 33.3428 -87.9414 35° Northeast 172 198 10,900  Level Memphis Center
12:10PM 33.3642 -87.9281 28° Northeast 172 198 10,900  Level Memphis Center
12:10PM 33.3842 -87.9114 35° Northeast 174 200 10,900  Level Memphis Center
12:11PM 33.4247 -87.8806 32° Northeast 174 200 10,900  Level Memphis Center
12:12PM 33.4661 -87.8503 31° Northeast 173 199 10,900  Level Memphis Center
12:14PM 33.5078 -87.8192 32° Northeast 176 203 11,000  Climbing Memphis Center
12:15PM 33.5564 -87.7819 33° Northeast 174 200 11,000  Level Memphis Center
12:16PM 33.5975 -87.7517 32° Northeast 174 200 11,000  Level Memphis Center
12:17PM 33.6392 -87.7203 32° Northeast 176 203 11,000  Level Memphis Center
12:18PM 33.6806 -87.6894 32° Northeast 176 203 11,000  Level Memphis Center
12:19PM 33.7211 -87.6583 33° Northeast 174 200 11,000  Level Memphis Center
12:20PM 33.7622 -87.6272 32° Northeast 174 200 11,000  Level Memphis Center
12:21PM 33.8117 -87.5900 32° Northeast 175 201 11,000  Level Memphis Center
12:22PM 33.8519 -87.5592 32° Northeast 173 199 11,000  Level Memphis Center
12:22PM 33.8519 -87.5592 32° Northeast 173 199 11,000  Level Memphis Center
12:24PM 33.9433 -87.4900 32° Northeast 177 204 11,000  Level Memphis Center
12:25PM 33.9828 -87.4594 33° Northeast 173 199 11,000  Level Memphis Center
12:26PM 34.0236 -87.4294 31° Northeast 173 199 11,000  Level Memphis Center
12:27PM 34.0717 -87.3919 33° Northeast 172 198 11,000  Level Memphis Center
12:28PM 34.1122 -87.3611 32° Northeast 173 199 11,000 -360 Level Memphis Center
12:29PM 34.1553 -87.3292 32° Northeast 176 203 10,300 -780 Descending Memphis Center
12:30PM 34.2028 -87.2936 32° Northeast 189 217 9,400 -840 Descending Memphis Center
12:31PM 34.2483 -87.2583 33° Northeast 194 223 8,600 -840 Descending Memphis Center
12:32PM 34.3011 -87.2175 33° Northeast 192 221 7,700 -840 Descending Memphis Center
12:33PM 34.3433 -87.1850 32° Northeast 186 214 6,900 -780 Descending Memphis Center
12:34PM 34.3769 -87.1464 43° Northeast 181 208 6,100 -720 Descending Memphis Center
12:35PM 34.3883 -87.0864 77° East 184 212 5,400 -660 Descending Memphis Center
12:36PM 34.4000 -87.0322 75° East 176 203 4,800 -600 Descending Memphis Center
12:38PM 34.4122 -86.9689 77° East 167 192 4,200 -600 Descending Memphis Center
12:39PM 34.4269 -86.9294 66° East 160 184 3,600 -540 Descending Memphis Center
12:40PM 34.4628 -86.9500 335° Northwest 154 177 3,100 -300 Descending Memphis Center
12:41PM 34.5058 -86.9536 356° North 147 169 3,000 -120 Descending Memphis Center